Time;durP1;ratioP1;P1;durP2;ratioP2;P2;SDS_P1;SDS_P2;PMS_P1;PMS_P2;Temp;Humidity;BMP_temperature;BMP_pressure;BME280_temperature;BME280_humidity;BME280_pressure;Samples;Min_cycle;Max_cycle;Signal;HPM_P1;HPM_P2
2021/07/01 00:00:24;;;;;;;;;;;27.00;99.00;;;;;;1867073;76;20163;-85
2021/07/01 00:02:59;;;;;;;;;;;27.10;99.00;;;;;;1862097;76;20245;-86
2021/07/01 00:05:25;;;;;;;;;;;27.10;99.00;;;;;;1849405;76;20167;-85
2021/07/01 00:07:54;;;;;;;;;;;27.10;98.90;;;;;;1861484;76;20196;-85
2021/07/01 00:10:25;;;;;;;;;;;27.10;98.90;;;;;;1863303;76;20444;-86
2021/07/01 00:12:55;;;;;;;;;;;27.10;98.80;;;;;;1872321;75;20209;-84
2021/07/01 00:15:26;;;;;;;;;;;27.10;98.70;;;;;;1870375;75;20175;-85
2021/07/01 00:17:56;;;;;;;;;;;27.20;98.60;;;;;;1867892;76;20136;-86
2021/07/01 00:20:26;;;;;;;;;;;27.20;98.60;;;;;;1866426;75;20183;-86
2021/07/01 00:22:56;;;;;;;;;;;27.20;98.60;;;;;;1873343;76;20231;-85
2021/07/01 00:25:25;;;;;;;;;;;27.20;98.50;;;;;;1860797;75;20125;-85
2021/07/01 00:27:55;;;;;;;;;;;27.30;98.50;;;;;;1868242;75;20328;-86
2021/07/01 00:30:25;;;;;;;;;;;27.30;98.30;;;;;;1876001;75;20140;-85
2021/07/01 00:32:55;;;;;;;;;;;27.40;98.30;;;;;;1881611;75;20268;-84
2021/07/01 00:35:25;;;;;;;;;;;27.40;98.20;;;;;;1870252;75;20243;-86
2021/07/01 00:37:54;;;;;;;;;;;27.40;98.00;;;;;;1877344;75;20308;-86
2021/07/01 00:40:24;;;;;;;;;;;27.40;98.10;;;;;;1875222;76;20207;-85
2021/07/01 00:42:54;;;;;;;;;;;27.50;98.10;;;;;;1881905;75;20115;-84
2021/07/01 00:45:23;;;;;;;;;;;27.60;98.00;;;;;;1876038;75;20123;-83
2021/07/01 00:47:53;;;;;;;;;;;27.60;97.80;;;;;;1873505;76;20188;-85
2021/07/01 00:50:23;;;;;;;;;;;27.70;97.80;;;;;;1882488;75;20467;-85
2021/07/01 00:52:53;;;;;;;;;;;27.70;97.30;;;;;;1863575;76;20243;-86
2021/07/01 00:55:23;;;;;;;;;;;27.80;97.00;;;;;;1881969;75;20152;-88
2021/07/01 00:57:56;;;;;;;;;;;27.80;97.00;;;;;;1875569;75;20123;-79
2021/07/01 01:02:57;;;;;;;;;;;27.90;96.80;;;;;;1868762;75;20206;-81
2021/07/01 01:05:26;;;;;;;;;;;27.90;96.90;;;;;;1864948;75;20246;-80
2021/07/01 01:07:56;;;;;;;;;;;28.00;96.40;;;;;;1863116;76;20189;-80
2021/07/01 01:10:26;;;;;;;;;;;28.00;96.40;;;;;;1824482;77;20230;-79
2021/07/01 01:12:56;;;;;;;;;;;28.10;96.20;;;;;;1828392;77;20445;-80
2021/07/01 01:15:27;;;;;;;;;;;28.20;96.30;;;;;;1833694;77;20236;-81
2021/07/01 01:17:57;;;;;;;;;;;28.30;96.20;;;;;;1837384;77;20542;-79
2021/07/01 01:20:27;;;;;;;;;;;28.40;95.70;;;;;;1842594;77;20213;-82
2021/07/01 01:22:56;;;;;;;;;;;28.50;95.20;;;;;;1837782;77;20209;-81
2021/07/01 01:25:27;;;;;;;;;;;28.60;95.20;;;;;;1825932;77;20534;-81
2021/07/01 01:27:56;;;;;;;;;;;28.70;94.70;;;;;;1837954;76;20225;-76
2021/07/01 01:30:26;;;;;;;;;;;28.70;94.70;;;;;;1841083;77;20583;-77
2021/07/01 01:32:55;;;;;;;;;;;28.80;94.50;;;;;;1841635;77;20380;-76
2021/07/01 01:35:25;;;;;;;;;;;28.80;94.40;;;;;;1809898;78;20226;-80
2021/07/01 01:37:55;;;;;;;;;;;28.90;94.50;;;;;;1870398;76;20249;-80
2021/07/01 01:40:25;;;;;;;;;;;29.00;94.20;;;;;;1887438;75;20396;-80
2021/07/01 01:42:55;;;;;;;;;;;29.10;93.90;;;;;;1878386;76;20201;-80
2021/07/01 01:45:25;;;;;;;;;;;29.20;93.40;;;;;;1867873;75;20247;-80
2021/07/01 01:47:55;;;;;;;;;;;29.30;93.40;;;;;;1870100;76;20376;-80
2021/07/01 01:50:25;;;;;;;;;;;29.30;93.10;;;;;;1867696;76;20164;-78
2021/07/01 01:52:58;;;;;;;;;;;29.40;92.90;;;;;;1881360;73;20198;-76
2021/07/01 01:55:27;;;;;;;;;;;29.40;93.10;;;;;;1872204;75;20378;-76
2021/07/01 01:57:59;;;;;;;;;;;29.50;93.20;;;;;;1878657;74;20211;-76
2021/07/01 02:00:29;;;;;;;;;;;29.60;93.20;;;;;;1871941;76;20211;-77
2021/07/01 02:02:59;;;;;;;;;;;29.70;93.20;;;;;;1870230;75;20592;-76
2021/07/01 02:05:30;;;;;;;;;;;29.80;92.60;;;;;;1874295;75;20187;-76
2021/07/01 02:08:00;;;;;;;;;;;29.90;92.20;;;;;;1871081;75;20216;-77
2021/07/01 02:10:33;;;;;;;;;;;30.00;91.90;;;;;;1876786;75;20223;-75
2021/07/01 02:13:03;;;;;;;;;;;30.10;92.00;;;;;;1863530;74;20199;-77
2021/07/01 02:15:34;;;;;;;;;;;30.20;91.30;;;;;;1836159;73;20241;-77
2021/07/01 02:18:04;;;;;;;;;;;30.20;91.50;;;;;;1885593;74;20200;-78
2021/07/01 02:20:33;;;;;;;;;;;30.30;91.50;;;;;;1880524;75;20542;-80
2021/07/01 02:23:04;;;;;;;;;;;30.30;90.70;;;;;;1877842;76;20130;-79
2021/07/01 02:25:35;;;;;;;;;;;30.40;90.30;;;;;;1876271;76;20232;-79
2021/07/01 02:28:05;;;;;;;;;;;30.50;90.20;;;;;;1887783;75;20167;-78
2021/07/01 02:30:35;;;;;;;;;;;30.50;90.50;;;;;;1870921;75;20262;-77
2021/07/01 02:33:04;;;;;;;;;;;30.60;90.30;;;;;;1873321;75;20219;-77
2021/07/01 02:35:34;;;;;;;;;;;30.80;89.60;;;;;;1878735;75;20170;-81
2021/07/01 02:38:02;;;;;;;;;;;30.80;88.20;;;;;;1875667;76;20180;-80
2021/07/01 02:40:32;;;;;;;;;;;30.90;87.70;;;;;;1870434;76;20129;-81
2021/07/01 02:43:01;;;;;;;;;;;30.90;87.00;;;;;;1869464;74;20433;-80
2021/07/01 02:45:31;;;;;;;;;;;30.90;86.50;;;;;;1879397;74;20140;-81
2021/07/01 02:48:01;;;;;;;;;;;31.00;87.90;;;;;;1875530;74;20518;-81
2021/07/01 02:50:31;;;;;;;;;;;31.10;86.60;;;;;;1880558;75;20159;-79
2021/07/01 02:53:01;;;;;;;;;;;31.20;83.80;;;;;;1866874;75;20204;-80
2021/07/01 02:55:31;;;;;;;;;;;31.20;83.70;;;;;;1868416;74;20116;-79
2021/07/01 02:58:02;;;;;;;;;;;31.30;83.00;;;;;;1869960;75;20194;-79
2021/07/01 03:00:32;;;;;;;;;;;31.30;83.30;;;;;;1864268;76;20426;-80
2021/07/01 03:03:02;;;;;;;;;;;31.30;82.30;;;;;;1889151;75;20224;-80
2021/07/01 03:05:31;;;;;;;;;;;31.40;82.30;;;;;;1869848;74;20156;-81
2021/07/01 03:08:01;;;;;;;;;;;31.40;82.70;;;;;;1871759;75;20183;-80
2021/07/01 03:10:34;;;;;;;;;;;31.50;82.30;;;;;;1868751;74;20215;-80
2021/07/01 03:13:04;;;;;;;;;;;31.60;81.50;;;;;;1885182;75;20370;-80
2021/07/01 03:15:34;;;;;;;;;;;31.60;81.30;;;;;;1876723;74;20214;-80
2021/07/01 03:18:05;;;;;;;;;;;31.60;80.70;;;;;;1867647;74;20608;-80
2021/07/01 03:20:35;;;;;;;;;;;31.70;81.70;;;;;;1876538;75;20227;-79
2021/07/01 03:23:05;;;;;;;;;;;31.80;80.60;;;;;;1880977;74;20210;-81
2021/07/01 03:25:34;;;;;;;;;;;31.80;80.40;;;;;;1883583;74;20163;-81
2021/07/01 03:28:04;;;;;;;;;;;31.80;80.90;;;;;;1887150;75;20187;-80
2021/07/01 03:30:39;;;;;;;;;;;31.90;80.50;;;;;;1876710;75;20211;-79
2021/07/01 03:33:09;;;;;;;;;;;32.00;79.60;;;;;;1869776;75;20167;-79
2021/07/01 03:35:39;;;;;;;;;;;32.00;78.80;;;;;;1855189;76;20172;-77
2021/07/01 03:38:08;;;;;;;;;;;32.00;79.10;;;;;;1863174;75;20253;-75
2021/07/01 03:40:38;;;;;;;;;;;32.00;79.00;;;;;;1876185;75;20412;-77
2021/07/01 03:43:08;;;;;;;;;;;32.10;78.70;;;;;;1871803;75;20615;-78
2021/07/01 03:45:38;;;;;;;;;;;32.10;78.10;;;;;;1880069;74;20180;-78
2021/07/01 03:48:08;;;;;;;;;;;32.20;78.40;;;;;;1874128;74;20296;-78
2021/07/01 03:50:39;;;;;;;;;;;32.20;79.40;;;;;;1880828;74;20293;-77
2021/07/01 03:53:09;;;;;;;;;;;32.20;79.10;;;;;;1868048;74;20765;-77
2021/07/01 03:55:38;;;;;;;;;;;32.30;78.00;;;;;;1878630;74;20635;-76
2021/07/01 03:58:08;;;;;;;;;;;32.40;78.10;;;;;;1875312;74;20176;-77
2021/07/01 04:00:38;;;;;;;;;;;32.50;78.10;;;;;;1854970;75;20212;-78
2021/07/01 04:03:07;;;;;;;;;;;32.60;78.70;;;;;;1860683;75;20204;-78
2021/07/01 04:08:31;;;;;;;;;;;32.60;77.70;;;;;;1806285;76;20194;-78
2021/07/01 04:11:06;;;;;;;;;;;32.70;78.00;;;;;;1808261;76;20203;-78
2021/07/01 04:13:47;;;;;;;;;;;;;;;;;;;;;
2021/07/01 04:16:12;;;;;;;;;;;32.70;76.30;;;;;;1847982;75;20172;-78
2021/07/01 04:21:42;;;;;;;;;;;32.70;76.60;;;;;;1892753;73;20198;-78
2021/07/01 04:24:12;;;;;;;;;;;32.70;76.90;;;;;;1866695;75;20548;-79
2021/07/01 04:26:41;;;;;;;;;;;32.80;76.70;;;;;;1872150;74;20166;-78
2021/07/01 04:29:14;;;;;;;;;;;32.80;76.20;;;;;;1860713;75;20178;-79
2021/07/01 04:31:45;;;;;;;;;;;32.90;75.80;;;;;;1864070;74;20260;-79
2021/07/01 04:34:15;;;;;;;;;;;32.90;75.10;;;;;;1867861;75;20149;-79
2021/07/01 04:36:48;;;;;;;;;;;33.00;76.00;;;;;;1833997;74;20176;-79
2021/07/01 04:39:18;;;;;;;;;;;33.00;75.60;;;;;;1877630;75;20233;-79
2021/07/01 04:41:49;;;;;;;;;;;33.00;75.80;;;;;;1869363;74;20289;-79
2021/07/01 04:44:19;;;;;;;;;;;32.90;76.30;;;;;;1857521;75;20201;-78
2021/07/01 04:46:48;;;;;;;;;;;32.90;75.50;;;;;;1866651;75;20189;-79
2021/07/01 04:49:19;;;;;;;;;;;32.90;76.10;;;;;;1864771;74;20269;-79
2021/07/01 04:51:48;;;;;;;;;;;33.00;75.10;;;;;;1895154;74;20154;-78
2021/07/01 04:54:18;;;;;;;;;;;33.10;75.50;;;;;;1869855;74;20274;-79
2021/07/01 04:56:48;;;;;;;;;;;33.30;75.10;;;;;;1869455;75;20162;-79
2021/07/01 04:59:19;;;;;;;;;;;33.40;73.90;;;;;;1862767;75;20310;-79
2021/07/01 05:01:49;;;;;;;;;;;33.40;73.20;;;;;;1860952;74;20167;-79
2021/07/01 05:04:19;;;;;;;;;;;33.30;73.50;;;;;;1851863;75;20115;-79
2021/07/01 05:06:49;;;;;;;;;;;33.20;74.10;;;;;;1869388;74;20162;-79
2021/07/01 05:09:19;;;;;;;;;;;33.20;73.50;;;;;;1845146;75;20199;-79
2021/07/01 05:11:49;;;;;;;;;;;33.30;74.80;;;;;;1812538;76;20216;-79
2021/07/01 05:14:19;;;;;;;;;;;33.30;74.60;;;;;;1853492;75;20166;-79
2021/07/01 05:16:56;;;;;;;;;;;33.50;73.20;;;;;;1884326;73;20735;-79
2021/07/01 05:19:33;;;;;;;;;;;33.50;71.70;;;;;;1840439;75;20215;-79
2021/07/01 05:22:04;;;;;;;;;;;33.50;72.60;;;;;;1843154;75;20323;-79
2021/07/01 05:24:34;;;;;;;;;;;33.60;71.70;;;;;;1867238;75;20172;-79
2021/07/01 05:27:04;;;;;;;;;;;33.60;71.80;;;;;;1873924;75;20270;-79
2021/07/01 05:29:33;;;;;;;;;;;33.50;71.80;;;;;;1848196;74;20465;-79
2021/07/01 05:32:04;;;;;;;;;;;33.50;71.80;;;;;;1875674;75;20218;-79
2021/07/01 05:34:34;;;;;;;;;;;33.60;72.10;;;;;;1876659;73;20233;-78
2021/07/01 05:37:06;;;;;;;;;;;33.60;71.30;;;;;;1860155;74;20131;-78
2021/07/01 05:39:36;;;;;;;;;;;33.70;70.70;;;;;;1859578;75;20462;-78
2021/07/01 05:42:07;;;;;;;;;;;33.70;70.70;;;;;;1868881;75;20191;-78
2021/07/01 05:44:37;;;;;;;;;;;33.70;72.20;;;;;;1876200;74;20237;-78
2021/07/01 05:47:07;;;;;;;;;;;33.80;71.70;;;;;;1862679;74;20186;-79
2021/07/01 05:49:37;;;;;;;;;;;33.80;70.80;;;;;;1886234;74;20205;-79
2021/07/01 05:52:08;;;;;;;;;;;33.70;71.00;;;;;;1863550;75;20273;-79
2021/07/01 05:54:52;;;;;;;;;;;33.80;70.50;;;;;;1870581;74;20213;-80
2021/07/01 05:59:59;;;;;;;;;;;33.70;70.70;;;;;;1813723;75;20332;-78
2021/07/01 06:02:29;;;;;;;;;;;33.80;71.00;;;;;;1804507;77;20121;-78
2021/07/01 06:05:00;;;;;;;;;;;33.90;70.90;;;;;;1858382;74;20228;-78
2021/07/01 06:07:40;;;;;;;;;;;33.90;70.40;;;;;;1872108;74;20205;-78
2021/07/01 06:10:32;;;;;;;;;;;33.80;70.20;;;;;;1856949;74;20634;-79
2021/07/01 06:13:03;;;;;;;;;;;33.80;70.00;;;;;;1882502;74;20156;-77
2021/07/01 06:16:05;;;;;;;;;;;33.80;70.90;;;;;;1877064;74;20212;-79
2021/07/01 06:18:34;;;;;;;;;;;33.80;70.80;;;;;;1859708;75;20144;-78
2021/07/01 06:21:28;;;;;;;;;;;33.90;69.40;;;;;;1916635;72;20144;-78
2021/07/01 06:24:02;;;;;;;;;;;33.90;69.70;;;;;;1935730;72;20120;-78
2021/07/01 06:26:55;;;;;;;;;;;33.80;70.00;;;;;;1876748;73;20161;-78
2021/07/01 06:29:29;;;;;;;;;;;33.60;69.90;;;;;;1868580;75;20216;-77
2021/07/01 06:32:00;;;;;;;;;;;33.60;70.20;;;;;;1843997;75;20329;-78
2021/07/01 06:34:30;;;;;;;;;;;33.50;71.00;;;;;;1874339;75;20235;-77
2021/07/01 06:37:03;;;;;;;;;;;33.60;70.70;;;;;;1889899;74;20207;-78
2021/07/01 06:39:32;;;;;;;;;;;33.70;70.70;;;;;;1889482;74;20168;-78
2021/07/01 06:42:03;;;;;;;;;;;33.80;69.70;;;;;;1864495;75;20474;-79
2021/07/01 06:44:33;;;;;;;;;;;33.90;68.40;;;;;;1838792;75;20422;-77
2021/07/01 06:47:03;;;;;;;;;;;33.90;68.50;;;;;;1879227;74;20280;-77
2021/07/01 06:49:33;;;;;;;;;;;33.80;69.00;;;;;;1857309;75;20245;-78
2021/07/01 06:52:06;;;;;;;;;;;33.80;69.70;;;;;;1868260;75;20135;-77
2021/07/01 06:54:36;;;;;;;;;;;33.70;69.20;;;;;;1887724;75;20141;-79
2021/07/01 06:57:09;;;;;;;;;;;33.60;69.50;;;;;;1877560;75;20306;-78
2021/07/01 06:59:41;;;;;;;;;;;33.60;69.80;;;;;;1881333;74;20463;-77
2021/07/01 07:02:20;;;;;;;;;;;33.50;69.90;;;;;;1893127;74;20265;-78
2021/07/01 07:04:43;;;;;;;;;;;33.40;70.00;;;;;;1866953;74;20462;-76
2021/07/01 07:07:19;;;;;;;;;;;33.30;69.80;;;;;;1826021;76;20293;-77
2021/07/01 07:09:50;;;;;;;;;;;33.30;70.60;;;;;;1877827;73;20497;-78
2021/07/01 07:12:19;;;;;;;;;;;33.30;71.30;;;;;;1895903;73;20227;-78
2021/07/01 07:14:51;;;;;;;;;;;33.30;71.20;;;;;;1886564;73;20295;-77
2021/07/01 07:17:24;;;;;;;;;;;33.40;70.90;;;;;;1877572;73;20202;-78
2021/07/01 07:19:58;;;;;;;;;;;33.40;72.00;;;;;;1899691;73;20243;-78
2021/07/01 07:22:29;;;;;;;;;;;33.50;71.00;;;;;;1885645;73;20188;-79
2021/07/01 07:25:01;;;;;;;;;;;33.50;70.50;;;;;;1889275;73;20207;-78
2021/07/01 07:27:33;;;;;;;;;;;33.60;70.00;;;;;;1904160;74;20248;-79
2021/07/01 07:30:03;;;;;;;;;;;33.60;68.80;;;;;;1894189;74;20475;-79
2021/07/01 07:32:32;;;;;;;;;;;33.70;68.50;;;;;;1884180;74;20275;-78
2021/07/01 07:35:04;;;;;;;;;;;33.70;68.90;;;;;;1899172;74;20704;-78
2021/07/01 07:37:34;;;;;;;;;;;33.70;67.90;;;;;;1880063;72;20154;-78
2021/07/01 07:40:05;;;;;;;;;;;33.70;68.60;;;;;;1881514;74;20401;-78
2021/07/01 07:42:35;;;;;;;;;;;33.80;69.20;;;;;;1901736;73;20196;-78
2021/07/01 07:45:08;;;;;;;;;;;33.90;68.50;;;;;;1909535;72;20145;-79
2021/07/01 07:47:37;;;;;;;;;;;34.00;68.40;;;;;;1902173;73;20153;-79
2021/07/01 07:50:08;;;;;;;;;;;34.00;68.10;;;;;;1887630;74;20201;-79
2021/07/01 07:52:39;;;;;;;;;;;34.00;67.40;;;;;;1889188;73;20152;-78
2021/07/01 07:55:10;;;;;;;;;;;34.00;68.60;;;;;;1917979;73;20199;-78
2021/07/01 07:57:41;;;;;;;;;;;33.90;66.70;;;;;;1910669;73;20332;-79
2021/07/01 08:00:11;;;;;;;;;;;33.90;67.30;;;;;;1922605;72;20399;-83
2021/07/01 08:02:42;;;;;;;;;;;33.80;67.30;;;;;;1904461;72;20196;-77
2021/07/01 08:05:14;;;;;;;;;;;33.80;67.70;;;;;;1826519;76;20235;-78
2021/07/01 08:07:44;;;;;;;;;;;33.80;68.20;;;;;;1858388;75;20304;-78
2021/07/01 08:10:19;;;;;;;;;;;33.80;66.90;;;;;;1815143;76;20411;-77
2021/07/01 08:12:53;;;;;;;;;;;33.80;67.30;;;;;;1826771;76;20217;-77
2021/07/01 08:15:23;;;;;;;;;;;33.90;67.70;;;;;;1847187;75;20534;-77
2021/07/01 08:17:53;;;;;;;;;;;34.00;67.40;;;;;;1897642;73;20334;-76
2021/07/01 08:20:24;;;;;;;;;;;34.10;67.10;;;;;;1883147;74;20225;-76
2021/07/01 08:22:54;;;;;;;;;;;34.10;66.00;;;;;;1892311;73;20173;-78
2021/07/01 08:25:24;;;;;;;;;;;34.20;65.40;;;;;;1891912;74;20160;-77
2021/07/01 08:27:54;;;;;;;;;;;34.30;64.30;;;;;;1870338;75;20218;-78
2021/07/01 08:30:25;;;;;;;;;;;34.30;64.30;;;;;;1870111;74;20196;-77
2021/07/01 08:32:57;;;;;;;;;;;34.20;64.40;;;;;;1852317;74;20190;-78
2021/07/01 08:35:28;;;;;;;;;;;34.10;65.00;;;;;;1882164;74;20586;-77
2021/07/01 08:37:59;;;;;;;;;;;34.10;65.70;;;;;;1901004;73;20184;-77
2021/07/01 08:40:30;;;;;;;;;;;34.10;64.80;;;;;;1887811;73;20211;-76
2021/07/01 08:43:01;;;;;;;;;;;34.00;65.30;;;;;;1899305;73;20471;-76
2021/07/01 08:45:32;;;;;;;;;;;34.00;65.10;;;;;;1896441;73;20227;-76
2021/07/01 08:48:03;;;;;;;;;;;34.00;64.70;;;;;;1922135;73;20164;-76
2021/07/01 08:50:33;;;;;;;;;;;33.90;65.20;;;;;;1911803;73;20256;-77
2021/07/01 08:53:05;;;;;;;;;;;33.90;66.60;;;;;;1890205;74;20248;-76
2021/07/01 08:55:35;;;;;;;;;;;33.90;66.70;;;;;;1903934;73;20472;-76
2021/07/01 08:58:06;;;;;;;;;;;33.90;66.00;;;;;;1902877;73;20232;-77
2021/07/01 09:00:37;;;;;;;;;;;33.90;66.20;;;;;;1902526;73;20173;-77
2021/07/01 09:03:08;;;;;;;;;;;33.80;66.30;;;;;;1884139;74;20140;-78
2021/07/01 09:05:39;;;;;;;;;;;33.70;67.10;;;;;;1911903;73;20484;-78
2021/07/01 09:08:10;;;;;;;;;;;33.70;66.70;;;;;;1899593;73;20750;-77
2021/07/01 09:10:45;;;;;;;;;;;33.60;66.20;;;;;;1883563;73;20211;-76
2021/07/01 09:13:13;;;;;;;;;;;33.60;66.10;;;;;;1909105;73;20235;-77
2021/07/01 09:15:43;;;;;;;;;;;33.60;66.40;;;;;;1866751;74;20190;-77
2021/07/01 09:18:15;;;;;;;;;;;33.60;67.00;;;;;;1857381;76;20203;-77
2021/07/01 09:20:44;;;;;;;;;;;33.60;66.40;;;;;;1882017;75;20169;-78
2021/07/01 09:23:33;;;;;;;;;;;33.60;66.80;;;;;;1910532;72;20220;-76
2021/07/01 09:26:05;;;;;;;;;;;33.60;66.90;;;;;;1912634;72;20116;-76
2021/07/01 09:28:34;;;;;;;;;;;33.60;66.50;;;;;;1881606;75;20457;-77
2021/07/01 09:31:05;;;;;;;;;;;33.50;67.40;;;;;;1872010;74;20239;-77
2021/07/01 09:33:35;;;;;;;;;;;33.50;67.20;;;;;;1880738;73;20284;-78
2021/07/01 09:36:05;;;;;;;;;;;33.50;66.80;;;;;;1883525;74;20417;-78
2021/07/01 09:38:36;;;;;;;;;;;33.60;65.80;;;;;;1875166;74;20155;-77
2021/07/01 09:41:11;;;;;;;;;;;33.60;65.70;;;;;;1863366;74;20411;-76
2021/07/01 09:43:42;;;;;;;;;;;33.60;66.90;;;;;;1826616;77;20292;-77
2021/07/01 09:46:13;;;;;;;;;;;33.60;66.80;;;;;;1826468;76;20156;-78
2021/07/01 09:48:47;;;;;;;;;;;33.60;66.20;;;;;;1841072;76;20259;-78
2021/07/01 09:51:18;;;;;;;;;;;33.60;65.10;;;;;;1841767;76;20224;-77
2021/07/01 09:53:49;;;;;;;;;;;33.60;66.20;;;;;;1836783;76;20134;-77
2021/07/01 09:56:23;;;;;;;;;;;33.50;66.20;;;;;;1885271;75;20201;-78
2021/07/01 09:58:57;;;;;;;;;;;33.50;65.90;;;;;;1905592;73;20189;-77
2021/07/01 10:01:27;;;;;;;;;;;33.50;65.90;;;;;;1908555;73;20506;-77
2021/07/01 10:03:58;;;;;;;;;;;33.50;65.80;;;;;;1906347;73;20156;-78
2021/07/01 10:06:28;;;;;;;;;;;33.50;66.00;;;;;;1893568;73;20250;-78
2021/07/01 10:08:58;;;;;;;;;;;33.50;66.50;;;;;;1860026;75;20215;-78
2021/07/01 10:11:30;;;;;;;;;;;33.50;65.70;;;;;;1892702;74;20189;-78
2021/07/01 10:14:01;;;;;;;;;;;33.50;66.20;;;;;;1890416;75;20360;-76
2021/07/01 10:16:33;;;;;;;;;;;33.40;65.50;;;;;;1888617;73;20135;-79
2021/07/01 10:19:04;;;;;;;;;;;33.50;66.70;;;;;;1888811;74;20203;-77
2021/07/01 10:21:35;;;;;;;;;;;33.40;65.80;;;;;;1883423;74;20169;-78
2021/07/01 10:24:07;;;;;;;;;;;33.40;66.30;;;;;;1891386;74;20166;-78
2021/07/01 10:26:38;;;;;;;;;;;33.50;65.90;;;;;;1882112;73;20198;-77
2021/07/01 10:29:10;;;;;;;;;;;33.50;66.40;;;;;;1894117;73;20283;-77
2021/07/01 10:31:41;;;;;;;;;;;33.50;66.40;;;;;;1880910;74;20231;-77
2021/07/01 10:34:11;;;;;;;;;;;33.50;65.90;;;;;;1906575;72;20126;-77
2021/07/01 10:36:43;;;;;;;;;;;33.50;65.10;;;;;;1898062;73;20496;-77
2021/07/01 10:39:12;;;;;;;;;;;33.50;65.30;;;;;;1862012;75;20358;-77
2021/07/01 10:41:42;;;;;;;;;;;33.60;65.00;;;;;;1886572;74;20255;-78
2021/07/01 10:44:13;;;;;;;;;;;33.50;64.90;;;;;;1897458;73;20231;-78
2021/07/01 10:46:44;;;;;;;;;;;33.50;64.60;;;;;;1901595;73;20200;-77
2021/07/01 10:49:14;;;;;;;;;;;33.50;64.20;;;;;;1892530;73;20189;-77
2021/07/01 10:51:46;;;;;;;;;;;33.50;64.20;;;;;;1885757;75;20192;-77
2021/07/01 10:54:16;;;;;;;;;;;33.50;64.20;;;;;;1894196;73;20158;-78
2021/07/01 10:56:51;;;;;;;;;;;33.50;65.90;;;;;;1848788;73;20214;-78
2021/07/01 10:59:21;;;;;;;;;;;33.50;64.90;;;;;;1861751;75;20227;-77
2021/07/01 11:01:54;;;;;;;;;;;33.50;65.60;;;;;;1837562;76;20816;-77
2021/07/01 11:04:23;;;;;;;;;;;33.40;66.00;;;;;;1908998;73;20249;-79
2021/07/01 11:06:54;;;;;;;;;;;33.50;66.50;;;;;;1923255;72;20188;-77
2021/07/01 11:09:25;;;;;;;;;;;33.40;66.80;;;;;;1854971;74;20126;-77
2021/07/01 11:11:56;;;;;;;;;;;33.40;67.40;;;;;;1896841;73;20456;-77
2021/07/01 11:14:29;;;;;;;;;;;33.30;67.20;;;;;;1880222;74;20241;-77
2021/07/01 11:17:00;;;;;;;;;;;33.30;68.10;;;;;;1890329;74;20208;-78
2021/07/01 11:19:31;;;;;;;;;;;33.30;68.40;;;;;;1898746;74;20209;-77
2021/07/01 11:22:01;;;;;;;;;;;33.20;68.50;;;;;;1905245;74;20197;-79
2021/07/01 11:24:30;;;;;;;;;;;33.10;68.50;;;;;;1835641;75;20177;-79
2021/07/01 11:27:02;;;;;;;;;;;33.10;68.90;;;;;;1915503;72;20238;-77
2021/07/01 11:29:33;;;;;;;;;;;33.00;69.30;;;;;;1896465;73;20126;-78
2021/07/01 11:32:03;;;;;;;;;;;33.00;69.70;;;;;;1912050;73;20332;-78
2021/07/01 11:34:34;;;;;;;;;;;33.00;69.00;;;;;;1908218;73;20185;-78
2021/07/01 11:37:04;;;;;;;;;;;32.90;68.70;;;;;;1919293;73;20161;-77
2021/07/01 11:39:34;;;;;;;;;;;32.90;69.00;;;;;;1903793;73;20191;-77
2021/07/01 11:42:05;;;;;;;;;;;32.90;69.50;;;;;;1912944;73;20119;-77
2021/07/01 11:44:35;;;;;;;;;;;32.80;69.70;;;;;;1909472;72;20270;-77
2021/07/01 11:47:07;;;;;;;;;;;32.80;70.20;;;;;;1866721;74;20206;-77
2021/07/01 11:49:38;;;;;;;;;;;32.80;70.70;;;;;;1877707;75;20163;-78
2021/07/01 11:52:08;;;;;;;;;;;32.80;71.00;;;;;;1862762;75;20435;-76
2021/07/01 11:54:39;;;;;;;;;;;32.70;70.90;;;;;;1887275;75;20261;-77
2021/07/01 11:57:09;;;;;;;;;;;32.70;71.40;;;;;;1914526;74;20193;-77
2021/07/01 11:59:39;;;;;;;;;;;32.70;71.60;;;;;;1882486;75;20178;-77
2021/07/01 12:02:09;;;;;;;;;;;32.70;72.00;;;;;;1893128;75;20182;-78
2021/07/01 12:04:39;;;;;;;;;;;32.60;72.00;;;;;;1891452;75;20373;-77
2021/07/01 12:07:10;;;;;;;;;;;32.60;72.30;;;;;;1915231;72;20167;-78
2021/07/01 12:09:41;;;;;;;;;;;32.60;72.80;;;;;;1914577;72;20238;-78
2021/07/01 12:12:12;;;;;;;;;;;32.60;73.40;;;;;;1875795;74;20205;-78
2021/07/01 12:14:43;;;;;;;;;;;32.60;73.40;;;;;;1811660;77;20135;-77
2021/07/01 12:17:32;;;;;;;;;;;32.60;72.90;;;;;;1847948;75;20132;-78
2021/07/01 12:20:03;;;;;;;;;;;32.50;73.20;;;;;;1830221;75;20168;-77
2021/07/01 12:22:34;;;;;;;;;;;32.50;74.70;;;;;;1843219;74;20192;-76
2021/07/01 12:25:04;;;;;;;;;;;32.50;74.70;;;;;;1825555;76;20190;-78
2021/07/01 12:27:34;;;;;;;;;;;32.50;74.60;;;;;;1792917;77;20151;-76
2021/07/01 12:30:05;;;;;;;;;;;32.40;74.00;;;;;;1829865;76;20281;-77
2021/07/01 12:32:35;;;;;;;;;;;32.40;74.40;;;;;;1818594;77;20536;-78
2021/07/01 12:35:05;;;;;;;;;;;32.30;72.70;;;;;;1842274;76;20206;-78
2021/07/01 12:37:36;;;;;;;;;;;32.30;74.70;;;;;;1814410;76;20230;-79
2021/07/01 12:40:08;;;;;;;;;;;32.30;73.80;;;;;;1790785;78;20333;-77
2021/07/01 12:42:39;;;;;;;;;;;32.30;73.70;;;;;;1811921;75;20185;-78
2021/07/01 12:45:09;;;;;;;;;;;32.20;73.70;;;;;;1838844;75;20125;-77
2021/07/01 12:47:39;;;;;;;;;;;32.20;74.90;;;;;;1776585;78;20140;-78
2021/07/01 12:50:11;;;;;;;;;;;32.20;75.20;;;;;;1772990;77;20171;-78
2021/07/01 12:52:42;;;;;;;;;;;32.20;75.80;;;;;;1774897;78;20539;-78
2021/07/01 12:55:13;;;;;;;;;;;32.20;76.60;;;;;;1853406;74;20547;-77
2021/07/01 12:57:44;;;;;;;;;;;32.10;76.40;;;;;;1799822;77;20204;-78
2021/07/01 13:00:15;;;;;;;;;;;32.10;76.70;;;;;;1840605;75;20261;-78
2021/07/01 13:02:46;;;;;;;;;;;32.10;76.80;;;;;;1844265;75;20156;-78
2021/07/01 13:05:16;;;;;;;;;;;32.00;77.20;;;;;;1822445;76;21064;-77
2021/07/01 13:07:48;;;;;;;;;;;31.90;77.90;;;;;;1846364;74;20185;-79
2021/07/01 13:10:18;;;;;;;;;;;31.90;78.40;;;;;;1827757;77;20170;-90
2021/07/01 13:12:51;;;;;;;;;;;31.80;78.60;;;;;;1803348;77;20158;-91
2021/07/01 13:15:21;;;;;;;;;;;31.70;78.70;;;;;;1824692;76;20218;-89
2021/07/01 13:17:52;;;;;;;;;;;31.70;79.10;;;;;;1799466;77;20144;-92
2021/07/01 13:20:25;;;;;;;;;;;31.60;79.10;;;;;;1824173;76;20129;-92
2021/07/01 13:22:54;;;;;;;;;;;31.60;79.10;;;;;;1818232;77;20469;-89
2021/07/01 13:25:25;;;;;;;;;;;31.60;79.30;;;;;;1825495;77;20441;-93
2021/07/01 13:27:57;;;;;;;;;;;31.50;79.60;;;;;;1840046;76;20166;-92
2021/07/01 13:30:28;;;;;;;;;;;31.50;79.60;;;;;;1826583;76;20175;-92
2021/07/01 13:32:59;;;;;;;;;;;31.40;79.70;;;;;;1835650;76;20670;-93
2021/07/01 13:35:29;;;;;;;;;;;31.40;80.10;;;;;;1806085;77;20276;-90
2021/07/01 13:37:59;;;;;;;;;;;31.40;80.10;;;;;;1841963;75;20274;-92
2021/07/01 13:40:30;;;;;;;;;;;31.40;80.30;;;;;;1836327;76;20194;-91
2021/07/01 13:43:01;;;;;;;;;;;31.30;80.20;;;;;;1841527;75;20184;-92
2021/07/01 13:45:32;;;;;;;;;;;31.40;81.20;;;;;;1821055;77;20420;-90
2021/07/01 13:48:03;;;;;;;;;;;31.40;81.20;;;;;;1850196;74;20200;-93
2021/07/01 13:50:33;;;;;;;;;;;31.30;80.80;;;;;;1805843;76;20165;-91
2021/07/01 13:53:04;;;;;;;;;;;31.30;80.90;;;;;;1783020;78;20217;-91
2021/07/01 13:55:35;;;;;;;;;;;31.30;80.90;;;;;;1793208;77;20208;-92
2021/07/01 13:58:05;;;;;;;;;;;31.30;81.00;;;;;;1810639;77;20259;-92
2021/07/01 14:00:37;;;;;;;;;;;31.30;80.90;;;;;;1849436;74;20263;-90
2021/07/01 14:03:13;;;;;;;;;;;31.30;80.80;;;;;;1910555;73;20175;-91
2021/07/01 14:05:44;;;;;;;;;;;31.30;80.90;;;;;;1936099;72;20371;-90
2021/07/01 14:08:14;;;;;;;;;;;31.30;80.70;;;;;;1945037;72;20240;-90
2021/07/01 14:10:44;;;;;;;;;;;31.30;80.50;;;;;;1899076;72;20823;-90
2021/07/01 14:13:14;;;;;;;;;;;31.40;80.60;;;;;;1928444;71;20276;-91
2021/07/01 14:15:44;;;;;;;;;;;31.40;80.60;;;;;;1958838;71;20319;-90
2021/07/01 14:18:14;;;;;;;;;;;31.40;80.80;;;;;;1951268;72;20197;-90
2021/07/01 14:20:44;;;;;;;;;;;31.40;81.20;;;;;;1930483;72;20149;-90
2021/07/01 14:23:17;;;;;;;;;;;31.40;81.20;;;;;;1940834;72;20196;-88
2021/07/01 14:25:47;;;;;;;;;;;31.30;81.10;;;;;;1947458;72;20446;-89
2021/07/01 14:28:19;;;;;;;;;;;31.30;81.20;;;;;;1947793;72;20457;-90
2021/07/01 14:30:51;;;;;;;;;;;31.30;81.30;;;;;;1942858;72;20127;-89
2021/07/01 14:33:25;;;;;;;;;;;31.30;81.70;;;;;;1925985;72;20130;-89
2021/07/01 14:35:55;;;;;;;;;;;31.30;81.60;;;;;;1939988;71;20258;-90
2021/07/01 14:38:26;;;;;;;;;;;31.20;81.60;;;;;;1911799;73;20254;-89
2021/07/01 14:40:57;;;;;;;;;;;31.20;82.10;;;;;;1923450;72;20896;-89
2021/07/01 14:43:30;;;;;;;;;;;31.20;82.00;;;;;;1935578;72;20524;-88
2021/07/01 14:46:02;;;;;;;;;;;31.10;82.00;;;;;;1941673;72;20186;-89
2021/07/01 14:48:31;;;;;;;;;;;31.20;82.60;;;;;;1944458;72;20385;-89
2021/07/01 14:51:03;;;;;;;;;;;31.10;82.60;;;;;;1946968;72;20234;-91